createdAt,value
2018-12-13T00:01:51.018Z,84.24
2018-12-13T00:04:27.041Z,84.87
2018-12-13T00:07:02.827Z,83.84
2018-12-13T00:09:38.880Z,83.71
2018-12-13T00:12:14.961Z,83.54
2018-12-13T00:14:51.100Z,83.97
2018-12-13T00:17:27.139Z,83.57
2018-12-13T00:20:05.333Z,85.24
2018-12-13T00:22:41.347Z,84.81
2018-12-13T00:25:17.534Z,84.60
2018-12-13T00:27:53.526Z,85.47
2018-12-13T00:30:29.455Z,84.72
2018-12-13T00:33:05.606Z,85.86
2018-12-13T00:35:41.599Z,86.50
2018-12-13T00:38:17.405Z,83.33
2018-12-13T00:40:53.733Z,81.78
2018-12-13T00:43:29.831Z,81.97
2018-12-13T00:46:05.862Z,84.95
2018-12-13T00:48:41.955Z,83.81
2018-12-13T00:51:17.843Z,83.55
2018-12-13T00:53:54.097Z,83.49
2018-12-13T00:56:30.393Z,82.46
2018-12-13T00:59:06.534Z,83.90
2018-12-13T01:01:42.833Z,83.36
2018-12-13T01:04:19.421Z,81.40
2018-12-13T01:06:55.589Z,80.36
2018-12-13T01:09:31.653Z,80.99
2018-12-13T01:12:07.687Z,80.93
2018-12-13T01:14:43.769Z,80.28
2018-12-13T01:17:20.143Z,80.66
2018-12-13T01:19:56.211Z,80.88
2018-12-13T01:22:32.236Z,82.80
2018-12-13T01:25:08.802Z,82.67
2018-12-13T01:27:45.104Z,82.17
2018-12-13T01:30:21.089Z,84.80
2018-12-13T01:32:56.975Z,85.93
2018-12-13T01:35:33.191Z,85.20
2018-12-13T01:38:09.237Z,85.17
2018-12-13T01:40:45.603Z,85.70
2018-12-13T01:43:21.647Z,84.98
2018-12-13T01:45:57.724Z,83.37
2018-12-13T01:48:33.768Z,83.42
2018-12-13T01:51:09.836Z,82.76
2018-12-13T01:53:45.879Z,82.17
2018-12-13T01:56:21.980Z,82.07
2018-12-13T01:58:58.017Z,82.71
2018-12-13T02:01:34.093Z,81.99
2018-12-13T02:04:10.121Z,81.50
2018-12-13T02:06:46.185Z,82.09
2018-12-13T02:09:22.263Z,83.05
2018-12-13T02:11:58.332Z,83.19
2018-12-13T02:14:34.844Z,83.34
2018-12-13T02:17:10.775Z,84.15
2018-12-13T02:19:47.099Z,84.96
2018-12-13T02:22:23.196Z,85.16
2018-12-13T02:24:59.560Z,86.37
2018-12-13T02:27:35.616Z,85.87
2018-12-13T02:30:12.446Z,85.45
2018-12-13T02:32:49.323Z,84.26
2018-12-13T02:35:25.331Z,84.38
2018-12-13T02:38:01.386Z,82.60
2018-12-13T02:40:37.948Z,82.01
2018-12-13T02:43:14.138Z,82.37
2018-12-13T02:45:50.160Z,83.62
2018-12-13T02:48:26.247Z,83.87
2018-12-13T02:51:02.277Z,83.49
2018-12-13T02:53:38.378Z,82.32
2018-12-13T02:56:14.390Z,82.18
2018-12-13T02:58:50.167Z,84.20
2018-12-13T03:01:26.144Z,84.21
2018-12-13T03:04:02.290Z,83.60
2018-12-13T03:06:38.327Z,82.27
2018-12-13T03:09:14.415Z,83.54
2018-12-13T03:11:50.469Z,82.40
2018-12-13T03:14:26.554Z,82.56
2018-12-13T03:17:02.692Z,84.08
2018-12-13T03:19:39.024Z,86.29
2018-12-13T03:22:15.068Z,84.11
2018-12-13T03:24:50.990Z,84.58
2018-12-13T03:27:27.131Z,82.79
2018-12-13T03:30:03.725Z,83.87
2018-12-13T03:32:39.733Z,83.79
2018-12-13T03:35:15.733Z,84.36
2018-12-13T03:37:51.986Z,84.53
2018-12-13T03:40:28.369Z,83.72
2018-12-13T03:43:04.438Z,83.79
2018-12-13T03:45:40.487Z,85.76
2018-12-13T03:48:16.539Z,85.35
2018-12-13T03:50:53.111Z,86.60
2018-12-13T03:53:28.963Z,83.96
2018-12-13T03:56:05.062Z,85.33
2018-12-13T03:58:41.426Z,84.04
2018-12-13T04:01:17.483Z,83.32
2018-12-13T04:03:53.499Z,81.42
2018-12-13T04:06:29.625Z,80.66
2018-12-13T04:09:07.529Z,82.94
2018-12-13T04:11:42.667Z,83.34
2018-12-13T04:14:17.683Z,83.25
2018-12-13T04:16:54.106Z,85.10
2018-12-13T04:19:29.260Z,83.78
2018-12-13T04:22:05.550Z,83.34
2018-12-13T04:24:41.689Z,84.16
2018-12-13T04:27:17.775Z,84.63
2018-12-13T04:29:54.310Z,83.80
2018-12-13T04:32:30.224Z,83.68
2018-12-13T04:35:06.389Z,83.72
2018-12-13T04:37:42.624Z,81.62
2018-12-13T04:40:18.661Z,81.85
2018-12-13T04:42:54.750Z,82.56
2018-12-13T04:45:30.783Z,84.04
2018-12-13T04:48:06.729Z,85.04
2018-12-13T04:50:42.905Z,82.74
2018-12-13T04:53:18.980Z,82.52
2018-12-13T04:55:55.150Z,83.95
2018-12-13T04:58:31.572Z,84.17
2018-12-13T05:01:07.526Z,85.42
2018-12-13T05:03:43.520Z,83.07
2018-12-13T05:06:19.570Z,85.28
2018-12-13T05:08:55.683Z,82.39
2018-12-13T05:11:32.087Z,83.19
2018-12-13T05:14:08.736Z,82.82
2018-12-13T05:16:44.697Z,83.06
2018-12-13T05:19:20.837Z,81.23
2018-12-13T05:21:57.176Z,80.54
2018-12-13T05:24:33.318Z,82.29
2018-12-13T05:27:09.266Z,82.25
2018-12-13T05:29:45.153Z,84.66
2018-12-13T05:32:21.432Z,85.03
2018-12-13T05:34:57.806Z,85.85
2018-12-13T05:37:33.987Z,86.16
2018-12-13T05:40:09.916Z,85.90
2018-12-13T05:42:45.940Z,84.72
2018-12-13T05:45:22.049Z,84.68
2018-12-13T05:47:58.096Z,85.66
2018-12-13T05:50:34.158Z,84.48
2018-12-13T05:53:10.203Z,84.03
2018-12-13T05:55:46.280Z,84.45
2018-12-13T05:58:22.097Z,81.67
2018-12-13T06:00:58.121Z,82.07
2018-12-13T06:03:34.754Z,81.11
2018-12-13T06:07:35.145Z,80.08
2018-12-13T06:10:13.512Z,81.23
2018-12-13T06:12:49.591Z,79.74
2018-12-13T06:15:25.617Z,81.79
2018-12-13T06:18:06.800Z,81.86
2018-12-13T06:20:48.112Z,82.96
2018-12-13T06:23:24.053Z,82.90
2018-12-13T06:26:00.002Z,81.87
2018-12-13T06:28:36.110Z,82.56
2018-12-13T06:31:12.111Z,83.84
2018-12-13T06:33:48.205Z,85.24
2018-12-13T06:36:27.006Z,85.07
2018-12-13T06:39:04.240Z,85.12
2018-12-13T06:41:40.353Z,85.01
2018-12-13T06:44:17.069Z,83.67
2018-12-13T06:46:53.672Z,82.61
2018-12-13T06:49:29.782Z,82.47
2018-12-13T06:52:05.818Z,82.62
2018-12-13T06:54:41.916Z,82.73
2018-12-13T06:57:18.248Z,82.67
2018-12-13T06:59:54.360Z,82.20
2018-12-13T07:02:30.604Z,82.32
2018-12-13T07:05:07.314Z,82.12
2018-12-13T07:07:43.422Z,81.39
2018-12-13T07:10:19.560Z,83.67
2018-12-13T07:12:55.860Z,84.82
2018-12-13T07:15:31.921Z,83.31
2018-12-13T07:18:07.949Z,84.62
2018-12-13T07:20:43.738Z,84.26
2018-12-13T07:23:19.761Z,83.78
2018-12-13T07:25:55.966Z,82.60
2018-12-13T07:28:31.885Z,82.28
2018-12-13T07:31:07.997Z,82.63
2018-12-13T07:33:44.042Z,81.32
2018-12-13T07:36:20.590Z,81.35
2018-12-13T07:38:57.962Z,80.40
2018-12-13T07:41:35.206Z,77.28
2018-12-13T07:44:11.321Z,78.79
2018-12-13T07:46:47.403Z,79.67
2018-12-13T07:49:23.449Z,80.80
2018-12-13T07:51:59.556Z,80.50
2018-12-13T07:54:38.034Z,81.75
2018-12-13T07:57:14.190Z,79.75
2018-12-13T07:59:50.125Z,77.88
2018-12-13T08:02:25.983Z,77.56
2018-12-13T08:05:01.962Z,76.75
2018-12-13T08:07:38.083Z,77.26
2018-12-13T08:10:14.057Z,77.11
2018-12-13T08:12:51.233Z,77.01
2018-12-13T08:15:27.141Z,76.82
2018-12-13T08:18:03.226Z,76.05
2018-12-13T08:20:39.265Z,74.67
2018-12-13T08:23:15.434Z,75.47
2018-12-13T08:25:51.430Z,74.07
2018-12-13T08:28:27.777Z,73.28
2018-12-13T08:38:10.011Z,74.65
2018-12-13T08:40:47.243Z,74.74
2018-12-13T08:43:23.327Z,77.89
2018-12-13T08:45:59.378Z,77.43
2018-12-13T08:48:35.793Z,77.11
2018-12-13T08:51:12.640Z,77.86
2018-12-13T08:53:48.741Z,75.56
2018-12-13T08:56:25.135Z,74.47
2018-12-13T08:59:01.258Z,71.73
2018-12-13T09:01:37.485Z,71.60
2018-12-13T09:04:13.767Z,72.00
2018-12-13T09:06:49.582Z,71.91
2018-12-13T09:09:25.714Z,73.66
2018-12-13T09:12:01.729Z,72.09
2018-12-13T09:14:37.827Z,71.40
2018-12-13T09:17:13.978Z,72.43
2018-12-13T09:19:50.337Z,72.62
2018-12-13T09:22:26.605Z,73.15
2018-12-13T09:25:02.688Z,74.14
2018-12-13T09:27:38.709Z,74.53
2018-12-13T09:30:15.325Z,72.47
2018-12-13T09:32:51.459Z,69.87
2018-12-13T09:35:27.886Z,70.73
2018-12-13T09:38:04.179Z,71.10
2018-12-13T09:40:40.282Z,70.22
2018-12-13T09:43:16.418Z,71.65
2018-12-13T09:45:52.427Z,72.74
2018-12-13T09:48:28.435Z,72.20
2018-12-13T09:51:04.597Z,70.51
2018-12-13T09:53:40.546Z,69.35
2018-12-13T09:56:16.646Z,69.35
2018-12-13T09:58:52.675Z,68.29
2018-12-13T10:01:28.766Z,68.10
2018-12-13T10:04:04.821Z,68.67
2018-12-13T10:06:40.933Z,67.16
2018-12-13T10:09:16.773Z,64.75
2018-12-13T10:11:53.014Z,64.42
2018-12-13T10:14:29.022Z,64.75
2018-12-13T10:17:05.278Z,65.71
2018-12-13T10:19:41.471Z,65.59
2018-12-13T10:22:17.661Z,64.84
2018-12-13T10:24:53.870Z,64.04
2018-12-13T10:27:29.821Z,61.84
2018-12-13T10:30:06.749Z,59.39
2018-12-13T10:32:43.041Z,59.24
2018-12-13T10:35:19.228Z,57.23
2018-12-13T10:37:55.538Z,56.00
2018-12-13T10:40:31.780Z,57.50
2018-12-13T10:43:07.874Z,57.53
2018-12-13T10:45:44.362Z,57.98
2018-12-13T10:48:20.312Z,55.99
2018-12-13T10:50:56.303Z,56.59
2018-12-13T10:53:32.491Z,54.03
2018-12-13T10:56:08.457Z,55.55
2018-12-13T10:58:44.559Z,55.55
2018-12-13T11:01:25.755Z,54.66
2018-12-13T11:04:01.893Z,55.58
2018-12-13T11:06:37.899Z,55.43
2018-12-13T11:09:14.156Z,57.77
2018-12-13T11:11:50.346Z,55.99
2018-12-13T11:14:26.168Z,52.87
2018-12-13T11:17:02.129Z,53.56
2018-12-13T11:19:38.259Z,53.66
2018-12-13T11:22:14.607Z,55.46
2018-12-13T11:24:50.775Z,54.10
2018-12-13T11:29:39.913Z,53.88
2018-12-13T11:32:16.590Z,55.88
2018-12-13T11:34:52.382Z,57.40
2018-12-13T11:37:28.589Z,57.02
2018-12-13T11:40:04.723Z,56.02
2018-12-13T11:42:41.012Z,56.77
2018-12-13T11:45:17.039Z,56.55
2018-12-13T11:47:53.138Z,56.47
2018-12-13T11:50:29.138Z,57.73
2018-12-13T11:53:05.242Z,58.34
2018-12-13T11:55:41.291Z,58.44
2018-12-13T11:58:17.787Z,58.76
2018-12-13T12:00:53.983Z,57.23
2018-12-13T12:03:30.091Z,58.33
2018-12-13T12:06:06.103Z,55.90
2018-12-13T12:08:42.237Z,56.71
2018-12-13T12:11:18.643Z,56.81
2018-12-13T12:13:54.737Z,56.69
2018-12-13T12:16:30.699Z,55.89
2018-12-13T12:19:06.789Z,55.95
2018-12-13T12:21:42.791Z,56.27
2018-12-13T12:24:18.885Z,57.46
2018-12-13T12:26:54.897Z,56.15
2018-12-13T12:29:31.058Z,57.76
2018-12-13T12:32:07.036Z,57.54
2018-12-13T12:34:43.035Z,56.97
2018-12-13T12:37:19.146Z,58.39
2018-12-13T12:39:55.210Z,57.65
2018-12-13T12:42:31.288Z,57.10
2018-12-13T12:45:08.639Z,56.60
2018-12-13T12:47:44.625Z,56.87
2018-12-13T12:50:20.774Z,54.68
2018-12-13T12:52:56.722Z,54.29
2018-12-13T12:55:32.859Z,54.01
2018-12-13T12:58:08.831Z,54.75
2018-12-13T13:00:44.973Z,52.47
2018-12-13T13:03:20.961Z,53.59
2018-12-13T13:05:57.075Z,52.72
2018-12-13T13:08:33.097Z,57.03
2018-12-13T13:11:09.431Z,58.62
2018-12-13T13:13:45.535Z,53.56
2018-12-13T13:16:22.029Z,59.48
2018-12-13T13:18:57.918Z,59.95
2018-12-13T13:21:34.598Z,60.28
2018-12-13T13:24:10.653Z,60.46
2018-12-13T13:26:46.802Z,59.44
2018-12-13T13:29:22.780Z,59.25
2018-12-13T13:31:59.345Z,60.73
2018-12-13T13:34:35.565Z,60.54
2018-12-13T13:37:11.959Z,55.14
2018-12-13T13:39:47.965Z,58.15
2018-12-13T13:42:24.083Z,56.53
2018-12-13T13:45:02.679Z,58.88
2018-12-13T13:47:41.549Z,60.20
2018-12-13T13:50:18.718Z,58.63
2018-12-13T13:52:54.690Z,60.54
2018-12-13T13:55:30.551Z,63.60
2018-12-13T13:58:06.571Z,60.81
2018-12-13T14:00:42.601Z,61.33
2018-12-13T14:03:19.129Z,60.22
2018-12-13T14:05:55.368Z,60.53
2018-12-13T14:08:31.912Z,60.95
2018-12-13T14:11:08.081Z,63.67
2018-12-13T14:13:44.995Z,61.22
2018-12-13T14:16:20.857Z,63.12
2018-12-13T14:18:56.988Z,62.05
2018-12-13T14:21:32.928Z,61.76
2018-12-13T14:24:09.054Z,62.17
2018-12-13T14:26:45.067Z,62.36
2018-12-13T14:29:21.150Z,63.31
2018-12-13T14:31:57.209Z,63.12
2018-12-13T14:34:33.677Z,63.30
2018-12-13T14:37:09.605Z,64.20
2018-12-13T14:39:45.571Z,65.03
2018-12-13T14:42:21.749Z,66.08
2018-12-13T14:45:03.234Z,66.21
2018-12-13T14:47:39.398Z,66.16
2018-12-13T14:50:15.550Z,67.40
2018-12-13T14:52:51.826Z,67.21
2018-12-13T14:55:28.015Z,68.63
2018-12-13T14:58:04.310Z,68.00
2018-12-13T15:00:41.456Z,69.49
2018-12-13T15:03:17.846Z,70.54
2018-12-13T15:05:54.106Z,70.84
2018-12-13T15:08:30.341Z,71.25
2018-12-13T15:11:06.818Z,68.61
2018-12-13T15:13:42.790Z,66.85
2018-12-13T15:16:18.900Z,67.80
2018-12-13T15:18:55.192Z,71.49
2018-12-13T15:21:32.314Z,69.96
2018-12-13T15:24:08.552Z,70.33
2018-12-13T15:26:44.605Z,70.52
2018-12-13T15:29:20.640Z,71.33
2018-12-13T15:31:59.496Z,72.35
2018-12-13T15:34:34.917Z,71.61
2018-12-13T15:37:11.101Z,71.00
2018-12-13T15:39:47.340Z,71.27
2018-12-13T15:42:23.445Z,71.72
2018-12-13T15:44:59.470Z,73.66
2018-12-13T15:47:35.536Z,74.15
2018-12-13T15:50:11.626Z,72.91
2018-12-13T15:52:48.428Z,72.52
2018-12-13T15:55:24.673Z,72.51
2018-12-13T15:58:01.177Z,73.61
2018-12-13T16:00:37.038Z,75.30
2018-12-13T16:03:13.157Z,74.37
2018-12-13T16:05:49.160Z,75.89
2018-12-13T16:08:25.847Z,73.27
2018-12-13T16:11:01.915Z,74.19
2018-12-13T16:13:37.921Z,76.70
2018-12-13T16:16:14.024Z,74.36
2018-12-13T16:18:50.184Z,74.93
2018-12-13T16:21:26.177Z,73.13
2018-12-13T16:24:02.686Z,72.77
2018-12-13T16:26:38.587Z,73.56
2018-12-13T16:29:14.691Z,73.83
2018-12-13T16:31:50.712Z,72.60
2018-12-13T16:34:27.127Z,71.73
2018-12-13T16:37:03.125Z,73.48
2018-12-13T16:39:39.183Z,74.18
2018-12-13T16:42:15.280Z,74.98
2018-12-13T16:44:53.728Z,74.88
2018-12-13T16:47:29.544Z,75.10
2018-12-13T16:50:06.858Z,74.42
2018-12-13T16:52:42.915Z,75.25
2018-12-13T16:55:19.093Z,76.47
2018-12-13T16:57:55.308Z,75.60
2018-12-13T17:00:31.504Z,76.56
2018-12-13T17:03:42.736Z,75.92
2018-12-13T17:06:18.899Z,76.81
2018-12-13T17:08:54.868Z,76.94
2018-12-13T17:11:31.104Z,75.57
2018-12-13T17:14:07.345Z,76.62
2018-12-13T17:16:50.001Z,78.24
2018-12-13T17:19:26.413Z,77.97
2018-12-13T17:22:02.780Z,79.36
2018-12-13T17:24:38.925Z,77.71
2018-12-13T17:27:15.302Z,77.63
2018-12-13T17:29:51.392Z,76.87
2018-12-13T17:32:27.262Z,78.16
2018-12-13T17:35:03.570Z,78.85
2018-12-13T17:37:39.830Z,79.28
2018-12-13T17:40:15.910Z,79.27
2018-12-13T17:42:52.046Z,80.75
2018-12-13T17:45:30.049Z,80.47
2018-12-13T17:48:06.320Z,78.07
2018-12-13T17:50:42.657Z,77.27
2018-12-13T17:53:19.533Z,79.09
2018-12-13T17:55:55.719Z,77.89
2018-12-13T17:58:31.760Z,77.32
2018-12-13T18:01:07.854Z,78.09
2018-12-13T18:03:43.939Z,78.01
2018-12-13T18:06:19.971Z,78.79
2018-12-13T18:08:56.313Z,77.83
2018-12-13T18:11:32.341Z,76.77
2018-12-13T18:14:08.422Z,78.74
2018-12-13T18:16:44.716Z,79.60
2018-12-13T18:19:20.819Z,79.83
2018-12-13T18:21:56.581Z,78.21
2018-12-13T18:24:32.692Z,78.11
2018-12-13T18:27:08.679Z,77.65
2018-12-13T18:29:45.124Z,77.66
2018-12-13T18:32:21.420Z,78.17
2018-12-13T18:35:00.051Z,77.15
2018-12-13T18:37:35.833Z,78.21
2018-12-13T18:40:11.807Z,78.71
2018-12-13T18:42:48.661Z,79.56
2018-12-13T18:45:25.171Z,78.82
2018-12-13T18:48:01.157Z,78.25
2018-12-13T18:50:37.546Z,77.24
2018-12-13T18:53:13.599Z,77.16
2018-12-13T18:55:49.652Z,76.60
2018-12-13T18:58:25.991Z,78.18
2018-12-13T19:01:02.443Z,77.16
2018-12-13T19:03:38.775Z,79.12
2018-12-13T19:06:14.928Z,79.40
2018-12-13T19:08:51.175Z,79.90
2018-12-13T19:11:27.682Z,78.22
2018-12-13T19:14:04.493Z,78.14
2018-12-13T19:16:41.651Z,77.72
2018-12-13T19:19:17.818Z,76.92
2018-12-13T19:21:53.994Z,77.61
2018-12-13T19:24:30.598Z,76.80
2018-12-13T19:27:06.676Z,78.27
2018-12-13T19:29:42.410Z,82.50
2018-12-13T19:32:18.889Z,78.48
2018-12-13T19:35:00.275Z,81.99
2018-12-13T19:37:33.382Z,78.61
2018-12-13T19:40:09.895Z,77.84
2018-12-13T19:42:49.194Z,78.33
2018-12-13T19:45:25.217Z,77.71
2018-12-13T19:48:01.347Z,77.75
2018-12-13T19:50:37.953Z,78.56
2018-12-13T19:53:14.432Z,77.99
2018-12-13T19:55:50.394Z,76.88
2018-12-13T19:58:26.166Z,75.07
2018-12-13T20:01:02.215Z,77.84
2018-12-13T20:03:38.891Z,76.75
2018-12-13T20:06:15.310Z,76.85
2018-12-13T20:08:51.630Z,77.47
2018-12-13T20:11:27.658Z,77.07
2018-12-13T20:14:03.816Z,76.79
2018-12-13T20:16:39.767Z,78.44
2018-12-13T20:19:15.634Z,78.40
2018-12-13T20:21:51.905Z,76.74
2018-12-13T20:24:28.323Z,78.72
2018-12-13T20:27:06.270Z,78.62
2018-12-13T20:29:43.882Z,81.19
2018-12-13T20:32:21.249Z,81.94
2018-12-13T20:34:58.275Z,82.04
2018-12-13T20:37:34.526Z,79.51
2018-12-13T20:40:10.532Z,77.98
2018-12-13T20:42:46.276Z,77.54
2018-12-13T20:45:23.334Z,77.54
2018-12-13T20:47:59.309Z,78.10
2018-12-13T20:50:35.415Z,78.81
2018-12-13T20:53:11.458Z,78.59
2018-12-13T20:55:47.721Z,80.63
2018-12-13T20:58:23.915Z,81.57
2018-12-13T21:01:00.137Z,80.31
2018-12-13T21:03:36.397Z,81.00
2018-12-13T21:06:13.339Z,80.05
2018-12-13T21:08:49.386Z,81.12
2018-12-13T21:11:28.211Z,81.21
2018-12-13T21:14:04.623Z,79.81
2018-12-13T21:16:40.901Z,80.81
2018-12-13T21:19:16.897Z,83.41
2018-12-13T21:21:53.257Z,84.78
2018-12-13T21:24:29.318Z,85.22
2018-12-13T21:27:05.462Z,85.13
2018-12-13T21:29:41.332Z,84.39
2018-12-13T21:32:17.235Z,85.83
2018-12-13T21:34:53.141Z,85.61
2018-12-13T21:37:29.798Z,83.54
2018-12-13T21:40:07.529Z,83.60
2018-12-13T21:42:43.554Z,83.11
2018-12-13T21:45:19.690Z,82.94
2018-12-13T21:47:56.097Z,83.12
2018-12-13T21:50:32.774Z,84.13
2018-12-13T21:53:09.265Z,84.89
2018-12-13T21:55:47.789Z,84.68
2018-12-13T21:58:26.063Z,85.77
2018-12-13T22:01:04.055Z,84.73
2018-12-13T22:03:40.693Z,86.59
2018-12-13T22:06:18.667Z,87.44
2018-12-13T22:08:56.683Z,86.87
2018-12-13T22:11:33.154Z,84.89
2018-12-13T22:14:10.683Z,87.08
2018-12-13T22:16:47.707Z,87.44
2018-12-13T22:19:25.396Z,87.47
2018-12-13T22:22:01.973Z,88.63
2018-12-13T22:24:38.307Z,89.87
2018-12-13T22:30:12.053Z,87.79
2018-12-13T22:32:48.670Z,87.08
2018-12-13T22:35:24.981Z,86.58
2018-12-13T22:38:01.403Z,86.60
2018-12-13T22:40:38.548Z,87.24
2018-12-13T22:43:20.447Z,87.79
2018-12-13T22:45:55.201Z,87.06
2018-12-13T22:48:33.195Z,87.15
2018-12-13T22:51:12.390Z,87.09
2018-12-13T22:53:49.510Z,85.51
2018-12-13T22:56:30.534Z,85.75
2018-12-13T22:59:06.832Z,87.42
2018-12-13T23:01:45.668Z,86.74
2018-12-13T23:04:30.249Z,87.73
2018-12-13T23:07:10.083Z,90.03
2018-12-13T23:09:48.314Z,90.13
2018-12-13T23:12:27.308Z,87.08
2018-12-13T23:15:04.470Z,86.84
2018-12-13T23:17:41.447Z,87.63
2018-12-13T23:20:18.624Z,87.50
2018-12-13T23:22:55.309Z,87.00
2018-12-13T23:25:32.326Z,87.84
2018-12-13T23:28:10.196Z,87.36
2018-12-13T23:30:49.660Z,85.41
2018-12-13T23:33:28.373Z,86.92
2018-12-13T23:36:06.053Z,86.94
2018-12-13T23:38:44.799Z,85.41
2018-12-13T23:41:21.641Z,85.71
2018-12-13T23:44:00.420Z,86.05
2018-12-13T23:46:37.019Z,87.18
2018-12-13T23:49:14.311Z,87.08
2018-12-13T23:51:51.417Z,87.69
2018-12-13T23:54:27.868Z,86.76
2018-12-13T23:57:05.354Z,89.04
2018-12-13T23:59:45.305Z,85.43
